Current | Forecast
Updated: 4:56 AM JST on December 14, 2017
Observed at Yokota AB, Japan
Temperature 29°F
Windchill 26°F
Humidity 68%
Dew Point 20°F
Wind West at 4 mph
Pressure 30.12 in (Rising)
Conditions Clear
Visibility 10.0 miles
UV 0 out of 16
Clouds Clear (CLR) : -
Yesterday's Maximum 49°F
Yesterday's Minimum 27°F approx.
Yesterday's Heating Degree Days 27 approx.
Sunrise6:44 AM JST
Sunset4:29 PM JST
Moon Rise2:40 AM JST
Moon Set2:11 PM JST
Moon PhaseMoon Phase
Waning Crescent
Raw METARMETAR RJTY 131956Z AUTO 28003KT 10SM CLR M01/M07 A3012 RMK AO2 SLPNO T10151068 FZRANO $


Monday
. High: 75° F.
Tuesday
. High: 75° F.
Wednesday
. High: 66° F.
Thursday
. High: 71° F.
Friday
. High: 73° F.
Saturday
. High: 73° F.
Sunday
. High: 73° F.
Monday
. High: 71° F.

Units: English | Metric

Find the Weather for any City, State or Zipcode, or Country:

U.S. State List | Severe Weather | Tropical Storms | Ski Conditions
United States | Canada | Central America | South America | Asia | Europe | Australia | Africa | Islands

Weather Underground

© Copyright 2017
The Weather Company, LLC